Ennadai, Canada
Current Conditions -  °F | °C
As of 9:48 PM on Friday 19 Dec 2014 (Local Time) from CYBQ Reporting Station
Haze Haze  
Wind Chill: 18°   Ceiling: 400
Heat Index: 18°   Visibility: 6mi
Dew Point: 16°   Wind: 2mph
Humidity: 93%   Direction: NA
Pressure: 29.93"   Gusts: NA
Location:  61.13°N, 100.88°W
Report Text: CYBQ 200348Z AUTO VRB02KT 6SM BR OVC004 M08/M09 A2993 RMK SLP162
Loading
Personal Weather Stations






























Interactive Weather Map New forecast layout! Learn more

10-Day Weather Forecast

Advertisements
Track Severe Weather on mobile